createdAt,value
2023-04-17T00:01:09.636Z,99541.56
2023-04-17T00:03:36.429Z,99543.34
2023-04-17T00:06:03.632Z,99542.69
2023-04-17T00:08:31.064Z,99545.31
2023-04-17T00:11:07.056Z,99537.53
2023-04-17T00:13:35.091Z,99537.63
2023-04-17T00:16:01.942Z,99546.38
2023-04-17T00:18:28.747Z,99536.66
2023-04-17T00:20:56.696Z,99535.16
2023-04-17T00:23:23.513Z,99536.66
2023-04-17T00:25:50.286Z,99535.50
2023-04-17T00:28:16.900Z,99538.91
2023-04-17T00:30:43.505Z,99535.59
2023-04-17T00:33:10.233Z,99532.25
2023-04-17T00:35:36.922Z,99537.69
2023-04-17T00:38:03.987Z,99535.16
2023-04-17T00:40:31.341Z,99543.22
2023-04-17T00:43:01.857Z,99536.94
2023-04-17T00:45:29.639Z,99534.31
2023-04-17T00:47:58.804Z,99531.66
2023-04-17T00:50:29.996Z,99535.16
2023-04-17T00:52:57.133Z,99534.22
2023-04-17T00:55:23.924Z,99535.16
2023-04-17T00:57:50.867Z,99538.56
2023-04-17T01:00:18.564Z,99539.31
2023-04-17T01:02:46.820Z,99534.75
2023-04-17T01:05:14.364Z,99534.56
2023-04-17T01:07:42.019Z,99532.13
2023-04-17T01:10:09.512Z,99533.50
2023-04-17T01:12:36.654Z,99531.22
2023-04-17T01:15:03.854Z,99535.78
2023-04-17T01:17:30.705Z,99528.97
2023-04-17T01:19:57.780Z,99530.03
2023-04-17T01:22:24.394Z,99531.19
2023-04-17T01:24:51.092Z,99532.22
2023-04-17T01:27:17.729Z,99527.88
2023-04-17T01:29:45.479Z,99533.47
2023-04-17T01:32:12.108Z,99524.69
2023-04-17T01:34:38.772Z,99531.69
2023-04-17T01:37:05.484Z,99526.41
2023-04-17T01:39:32.069Z,99528.28
2023-04-17T01:41:58.710Z,99528.38
2023-04-17T01:44:25.552Z,99538.00
2023-04-17T01:46:52.178Z,99531.78
2023-04-17T01:49:19.661Z,99535.25
2023-04-17T01:51:46.267Z,99537.91
2023-04-17T01:54:15.484Z,99529.13
2023-04-17T01:56:42.536Z,99536.13
2023-04-17T01:59:09.945Z,99535.06
2023-04-17T02:01:37.082Z,99537.59
2023-04-17T02:04:04.164Z,99536.75
2023-04-17T02:06:32.085Z,99531.47
2023-04-17T02:08:59.572Z,99525.66
2023-04-17T02:11:26.517Z,99531.00
2023-04-17T02:13:53.630Z,99529.97
2023-04-17T02:16:23.915Z,99535.44
2023-04-17T02:18:51.726Z,99544.34
2023-04-17T02:21:18.586Z,99539.88
2023-04-17T02:23:45.383Z,99538.84
2023-04-17T02:26:12.409Z,99538.84
2023-04-17T02:28:39.372Z,99541.47
2023-04-17T02:31:08.520Z,99538.00
2023-04-17T02:33:39.289Z,99540.63
2023-04-17T02:36:09.289Z,99540.53
2023-04-17T02:38:37.776Z,99535.19
2023-04-17T02:41:05.477Z,99539.47
2023-04-17T02:43:32.131Z,99536.75
2023-04-17T02:45:58.832Z,99537.50
2023-04-17T02:48:45.764Z,99536.75
2023-04-17T02:51:12.418Z,99535.06
2023-04-17T02:53:39.012Z,99542.25
2023-04-17T02:56:05.844Z,99540.34
2023-04-17T02:58:32.464Z,99536.84
2023-04-17T03:01:03.482Z,99538.00
2023-04-17T03:03:35.190Z,99546.22
2023-04-17T03:06:02.594Z,99537.63
2023-04-17T03:08:32.554Z,99542.56
2023-04-17T03:10:59.733Z,99541.34
2023-04-17T03:13:26.344Z,99541.16
2023-04-17T03:15:52.991Z,99542.03
2023-04-17T03:18:19.561Z,99541.25
2023-04-17T03:20:46.381Z,99541.34
2023-04-17T03:23:13.062Z,99545.06
2023-04-17T03:25:39.755Z,99543.44
2023-04-17T03:28:06.415Z,99555.59
2023-04-17T03:30:33.128Z,99547.56
2023-04-17T03:32:59.903Z,99553.78
2023-04-17T03:35:26.702Z,99552.19
2023-04-17T03:37:53.343Z,99551.16
2023-04-17T03:40:19.962Z,99560.13
2023-04-17T03:42:46.631Z,99568.03
2023-04-17T03:45:13.362Z,99566.50
2023-04-17T03:47:40.270Z,99561.44
2023-04-17T03:50:07.484Z,99567.47
2023-04-17T03:52:34.140Z,99565.78
2023-04-17T03:55:00.709Z,99566.63
2023-04-17T03:57:27.348Z,99567.47
2023-04-17T03:59:53.943Z,99565.31
2023-04-17T04:02:20.764Z,99570.97
2023-04-17T04:04:48.271Z,99571.91
2023-04-17T04:07:14.958Z,99578.88
2023-04-17T04:09:41.562Z,99579.75
2023-04-17T04:12:08.741Z,99579.25
2023-04-17T04:14:35.586Z,99580.38
2023-04-17T04:17:02.249Z,99576.44
2023-04-17T04:19:28.983Z,99583.75
2023-04-17T04:21:56.062Z,99591.59
2023-04-17T04:24:23.761Z,99585.81
2023-04-17T04:26:50.549Z,99594.88
2023-04-17T04:29:17.984Z,99599.47
2023-04-17T04:31:46.877Z,99595.31
2023-04-17T04:34:13.654Z,99596.94
2023-04-17T04:36:49.881Z,99589.03
2023-04-17T04:39:20.727Z,99590.34
2023-04-17T04:41:50.384Z,99590.50
2023-04-17T04:44:18.232Z,99594.28
2023-04-17T04:46:45.213Z,99590.69
2023-04-17T04:49:13.055Z,99599.06
2023-04-17T04:51:40.082Z,99601.41
2023-04-17T04:54:06.747Z,99599.72
2023-04-17T04:56:33.443Z,99597.69
2023-04-17T04:59:00.181Z,99601.25
2023-04-17T05:01:28.044Z,99598.63
2023-04-17T05:03:55.138Z,99605.84
2023-04-17T05:06:22.021Z,99604.97
2023-04-17T05:08:48.746Z,99613.66
2023-04-17T05:11:15.893Z,99604.34
2023-04-17T05:13:42.499Z,99612.31
2023-04-17T05:16:09.174Z,99607.03
2023-04-17T05:18:35.877Z,99616.66
2023-04-17T05:21:02.484Z,99616.56
2023-04-17T05:23:29.211Z,99617.59
2023-04-17T05:25:55.869Z,99620.31
2023-04-17T05:28:22.589Z,99616.84
2023-04-17T05:30:49.191Z,99620.78
2023-04-17T05:33:16.067Z,99621.03
2023-04-17T05:35:42.646Z,99617.66
2023-04-17T05:38:09.290Z,99626.00
2023-04-17T05:40:36.117Z,99626.75
2023-04-17T05:43:10.635Z,99628.91
2023-04-17T05:45:37.514Z,99630.84
2023-04-17T05:48:04.581Z,99631.25
2023-04-17T05:50:31.265Z,99633.81
2023-04-17T05:52:57.854Z,99635.69
2023-04-17T05:55:24.539Z,99636.69
2023-04-17T05:57:51.290Z,99632.78
2023-04-17T06:00:18.836Z,99633.53
2023-04-17T06:02:45.656Z,99634.31
2023-04-17T06:05:12.439Z,99629.53
2023-04-17T06:07:39.176Z,99642.88
2023-04-17T06:10:06.872Z,99634.69
2023-04-17T06:12:33.571Z,99640.06
2023-04-17T06:15:00.175Z,99636.41
2023-04-17T06:17:26.801Z,99645.00
2023-04-17T06:19:53.411Z,99644.63
2023-04-17T06:22:20.017Z,99641.88
2023-04-17T06:24:46.654Z,99644.16
2023-04-17T06:27:13.398Z,99643.91
2023-04-17T06:29:40.447Z,99643.81
2023-04-17T06:32:07.085Z,99651.56
2023-04-17T06:34:33.982Z,99650.53
2023-04-17T06:37:01.020Z,99650.25
2023-04-17T06:39:27.729Z,99656.28
2023-04-17T06:41:54.401Z,99654.22
2023-04-17T06:44:20.991Z,99661.56
2023-04-17T06:46:51.102Z,99656.47
2023-04-17T06:49:17.791Z,99663.06
2023-04-17T06:51:46.002Z,99658.56
2023-04-17T06:54:12.890Z,99664.78
2023-04-17T06:56:40.847Z,99665.63
2023-04-17T06:59:07.579Z,99665.16
2023-04-17T07:01:35.172Z,99660.56
2023-04-17T07:04:02.431Z,99672.53
2023-04-17T07:06:29.254Z,99675.16
2023-04-17T07:08:55.935Z,99681.56
2023-04-17T07:11:22.516Z,99682.16
2023-04-17T07:13:49.094Z,99683.72
2023-04-17T07:16:16.413Z,99688.16
2023-04-17T07:18:43.147Z,99689.78
2023-04-17T07:21:09.728Z,99690.72
2023-04-17T07:23:36.412Z,99693.84
2023-04-17T07:26:02.969Z,99691.56
2023-04-17T07:28:29.582Z,99700.16
2023-04-17T07:30:58.176Z,99692.25
2023-04-17T07:33:24.866Z,99696.69
2023-04-17T07:35:51.486Z,99698.00
2023-04-17T07:38:18.043Z,99705.31
2023-04-17T07:40:44.857Z,99704.31
2023-04-17T07:43:11.647Z,99714.66
2023-04-17T07:45:39.810Z,99713.00
2023-04-17T07:48:08.745Z,99708.66
2023-04-17T07:50:35.466Z,99711.09
2023-04-17T07:53:02.212Z,99719.69
2023-04-17T07:55:28.956Z,99718.91
2023-04-17T07:57:55.590Z,99719.41
2023-04-17T08:00:23.612Z,99716.22
2023-04-17T08:02:50.404Z,99725.81
2023-04-17T08:05:17.233Z,99722.56
2023-04-17T08:07:43.996Z,99727.25
2023-04-17T08:10:10.920Z,99731.31
2023-04-17T08:12:37.772Z,99729.81
2023-04-17T08:15:05.107Z,99735.34
2023-04-17T08:17:33.288Z,99723.47
2023-04-17T08:20:02.174Z,99734.97
2023-04-17T08:22:28.910Z,99741.97
2023-04-17T08:24:58.969Z,99742.34
2023-04-17T08:27:25.974Z,99735.75
2023-04-17T08:29:53.762Z,99741.22
2023-04-17T08:32:21.492Z,99737.88
2023-04-17T08:34:48.245Z,99741.28
2023-04-17T08:37:15.177Z,99735.56
2023-04-17T08:39:41.883Z,99741.28
2023-04-17T08:42:16.515Z,99745.25
2023-04-17T08:44:44.965Z,99743.69
2023-04-17T08:47:13.104Z,99741.69
2023-04-17T08:49:43.634Z,99743.94
2023-04-17T08:52:10.969Z,99748.66
2023-04-17T08:54:39.071Z,99746.53
2023-04-17T08:57:06.330Z,99736.38
2023-04-17T08:59:33.344Z,99742.56
2023-04-17T09:02:07.715Z,99740.97
2023-04-17T09:04:37.516Z,99738.69
2023-04-17T09:07:08.822Z,99742.44
2023-04-17T09:09:50.305Z,99739.25
2023-04-17T09:12:17.995Z,99738.22
2023-04-17T09:14:44.780Z,99745.22
2023-04-17T09:17:11.910Z,99749.00
2023-04-17T09:19:38.961Z,99748.56
2023-04-17T09:22:20.514Z,99748.16
2023-04-17T09:24:48.531Z,99750.94
2023-04-17T09:27:22.939Z,99749.16
2023-04-17T09:30:03.900Z,99746.72
2023-04-17T09:32:33.093Z,99744.16
2023-04-17T09:35:02.075Z,99739.09
2023-04-17T09:37:51.288Z,99744.41
2023-04-17T09:40:19.465Z,99744.97
2023-04-17T09:42:57.173Z,99754.94
2023-04-17T09:45:25.170Z,99754.13
2023-04-17T09:47:56.204Z,99756.25
2023-04-17T09:50:27.256Z,99756.13
2023-04-17T09:52:56.140Z,99754.31
2023-04-17T09:55:25.121Z,99759.00
2023-04-17T09:57:55.378Z,99759.00
2023-04-17T10:00:25.067Z,99757.72
2023-04-17T10:02:52.378Z,99763.00
2023-04-17T10:05:20.505Z,99757.38
2023-04-17T10:07:47.992Z,99759.97
2023-04-17T10:10:34.835Z,99756.91
2023-04-17T10:13:03.809Z,99757.22
2023-04-17T10:15:31.228Z,99758.78
2023-04-17T10:18:20.889Z,99752.94
2023-04-17T10:20:48.570Z,99759.44
2023-04-17T10:23:34.675Z,99755.06
2023-04-17T10:26:24.903Z,99752.94
2023-04-17T10:28:53.433Z,99756.09
2023-04-17T10:31:21.304Z,99743.81
2023-04-17T10:33:49.902Z,99750.06
2023-04-17T10:36:37.885Z,99744.16
2023-04-17T10:39:15.865Z,99747.97
2023-04-17T10:42:04.561Z,99747.63
2023-04-17T10:44:45.577Z,99755.47
2023-04-17T10:47:15.905Z,99748.38
2023-04-17T10:50:00.286Z,99749.03
2023-04-17T10:52:32.874Z,99748.88
2023-04-17T10:55:18.564Z,99744.50
2023-04-17T10:58:03.490Z,99734.53
2023-04-17T11:00:37.178Z,99739.59
2023-04-17T11:03:05.761Z,99734.59
2023-04-17T11:05:32.880Z,99733.94
2023-04-17T11:07:59.725Z,99729.09
2023-04-17T11:10:26.858Z,99726.53
2023-04-17T11:12:55.714Z,99727.53
2023-04-17T11:15:27.641Z,99720.97
2023-04-17T11:17:55.088Z,99720.75
2023-04-17T11:20:26.786Z,99726.94
2023-04-17T11:22:53.585Z,99727.63
2023-04-17T11:25:25.394Z,99732.22
2023-04-17T11:28:02.862Z,99728.00
2023-04-17T11:30:32.401Z,99725.06
2023-04-17T11:33:07.702Z,99730.91
2023-04-17T11:35:37.486Z,99729.22
2023-04-17T11:38:21.812Z,99732.59
2023-04-17T11:40:54.222Z,99733.31
2023-04-17T11:43:22.707Z,99726.56
2023-04-17T11:45:53.908Z,99731.28
2023-04-17T11:48:23.116Z,99734.78
2023-04-17T11:50:50.090Z,99728.34
2023-04-17T11:53:17.618Z,99726.53
2023-04-17T11:55:44.923Z,99735.25
2023-04-17T11:58:13.303Z,99723.25
2023-04-17T12:00:40.891Z,99729.78
2023-04-17T12:03:34.781Z,99715.41
2023-04-17T12:06:03.873Z,99725.66
2023-04-17T12:08:42.692Z,99718.78
2023-04-17T12:11:17.325Z,99711.56
2023-04-17T12:13:44.021Z,99715.66
2023-04-17T12:16:11.033Z,99717.41
2023-04-17T12:18:37.709Z,99713.13
2023-04-17T12:21:04.736Z,99726.69
2023-04-17T12:23:31.420Z,99713.66
2023-04-17T12:25:58.074Z,99713.44
2023-04-17T12:28:24.889Z,99713.34
2023-04-17T12:30:51.513Z,99718.94
2023-04-17T12:33:18.083Z,99717.84
2023-04-17T12:35:45.262Z,99711.91
2023-04-17T12:38:11.842Z,99706.13
2023-04-17T12:40:43.019Z,99707.22
2023-04-17T12:43:13.230Z,99707.44
2023-04-17T12:45:42.597Z,99709.50
2023-04-17T12:48:09.582Z,99705.03
2023-04-17T12:50:42.584Z,99699.25
2023-04-17T12:53:11.492Z,99694.75
2023-04-17T12:55:39.087Z,99698.50
2023-04-17T12:58:09.171Z,99696.09
2023-04-17T13:00:36.302Z,99703.56
2023-04-17T13:03:03.517Z,99695.13
2023-04-17T13:05:30.832Z,99695.88
2023-04-17T13:07:58.192Z,99693.81
2023-04-17T13:10:25.310Z,99687.53
2023-04-17T13:12:51.988Z,99687.16
2023-04-17T13:15:18.989Z,99694.91
2023-04-17T13:17:45.690Z,99692.47
2023-04-17T13:20:13.115Z,99688.25
2023-04-17T13:22:39.986Z,99687.47
2023-04-17T13:25:07.149Z,99697.44
2023-04-17T13:27:34.083Z,99692.56
2023-04-17T13:30:00.746Z,99687.63
2023-04-17T13:32:27.481Z,99689.69
2023-04-17T13:34:54.375Z,99683.94
2023-04-17T13:37:21.469Z,99681.41
2023-04-17T13:39:48.139Z,99675.66
2023-04-17T13:42:16.837Z,99670.47
2023-04-17T13:44:43.590Z,99670.97
2023-04-17T13:47:10.285Z,99669.00
2023-04-17T13:49:37.064Z,99674.84
2023-04-17T13:52:04.527Z,99673.97
2023-04-17T13:54:31.469Z,99674.81
2023-04-17T13:56:58.631Z,99676.25
2023-04-17T13:59:25.660Z,99676.69
2023-04-17T14:01:52.474Z,99668.06
2023-04-17T14:04:19.560Z,99675.09
2023-04-17T14:06:49.589Z,99674.25
2023-04-17T14:09:17.130Z,99666.88
2023-04-17T14:11:43.732Z,99673.78
2023-04-17T14:14:12.715Z,99681.91
2023-04-17T14:16:40.978Z,99674.97
2023-04-17T14:19:14.098Z,99677.34
2023-04-17T14:21:41.252Z,99673.59
2023-04-17T14:24:07.925Z,99683.06
2023-04-17T14:26:34.702Z,99672.66
2023-04-17T14:29:01.557Z,99678.69
2023-04-17T14:31:28.274Z,99674.09
2023-04-17T14:33:54.965Z,99684.09
2023-04-17T14:36:21.576Z,99674.06
2023-04-17T14:38:52.703Z,99670.81
2023-04-17T14:41:19.945Z,99675.50
2023-04-17T14:43:46.556Z,99679.38
2023-04-17T14:46:13.268Z,99673.59
2023-04-17T14:48:54.196Z,99672.63
2023-04-17T14:51:27.281Z,99662.09
2023-04-17T14:53:54.353Z,99665.59
2023-04-17T14:56:21.734Z,99670.81
2023-04-17T14:58:48.920Z,99661.63
2023-04-17T15:01:15.924Z,99659.59
2023-04-17T15:03:47.457Z,99661.69
2023-04-17T15:06:14.869Z,99658.16
2023-04-17T15:08:41.734Z,99653.53
2023-04-17T15:11:08.866Z,99652.84
2023-04-17T15:13:36.048Z,99655.03
2023-04-17T15:16:02.795Z,99662.84
2023-04-17T15:18:29.510Z,99656.44
2023-04-17T15:20:56.182Z,99653.75
2023-04-17T15:23:23.180Z,99653.25
2023-04-17T15:25:50.099Z,99654.00
2023-04-17T15:28:16.774Z,99643.13
2023-04-17T15:30:43.375Z,99653.91
2023-04-17T15:33:10.528Z,99650.19
2023-04-17T15:35:37.695Z,99654.53
2023-04-17T15:38:06.927Z,99655.72
2023-04-17T15:40:33.993Z,99653.44
2023-04-17T15:43:01.486Z,99655.25
2023-04-17T15:45:28.093Z,99654.41
2023-04-17T15:47:54.801Z,99659.72
2023-04-17T15:50:41.840Z,99651.38
2023-04-17T15:53:08.999Z,99653.28
2023-04-17T15:55:38.641Z,99658.50
2023-04-17T15:58:05.341Z,99657.53
2023-04-17T16:00:32.040Z,99642.78
2023-04-17T16:02:58.792Z,99651.84
2023-04-17T16:05:25.713Z,99643.34
2023-04-17T16:07:52.334Z,99642.97
2023-04-17T16:10:19.071Z,99649.19
2023-04-17T16:12:46.523Z,99653.56
2023-04-17T16:15:17.510Z,99656.09
2023-04-17T16:17:45.651Z,99660.69
2023-04-17T16:20:12.745Z,99659.50
2023-04-17T16:22:39.522Z,99651.38
2023-04-17T16:25:06.775Z,99656.22
2023-04-17T16:27:33.718Z,99661.03
2023-04-17T16:30:00.407Z,99657.28
2023-04-17T16:32:27.309Z,99657.16
2023-04-17T16:34:54.031Z,99659.56
2023-04-17T16:37:20.676Z,99647.00
2023-04-17T16:39:47.394Z,99657.38
2023-04-17T16:42:14.534Z,99661.00
2023-04-17T16:44:41.215Z,99658.41
2023-04-17T16:47:13.630Z,99670.47
2023-04-17T16:49:41.043Z,99661.91
2023-04-17T16:52:07.742Z,99661.50
2023-04-17T16:54:34.872Z,99656.34
2023-04-17T16:57:01.703Z,99661.66
2023-04-17T16:59:28.330Z,99663.00
2023-04-17T17:01:55.006Z,99656.13
2023-04-17T17:04:21.728Z,99660.97
2023-04-17T17:06:48.404Z,99660.22
2023-04-17T17:09:15.291Z,99662.19
2023-04-17T17:11:42.152Z,99674.47
2023-04-17T17:14:08.866Z,99662.41
2023-04-17T17:16:35.764Z,99680.25
2023-04-17T17:19:02.624Z,99676.16
2023-04-17T17:21:29.349Z,99682.91
2023-04-17T17:23:56.019Z,99676.72
2023-04-17T17:26:22.654Z,99678.88
2023-04-17T17:28:51.134Z,99678.75
2023-04-17T17:31:18.244Z,99674.63
2023-04-17T17:33:49.949Z,99675.91
2023-04-17T17:36:17.290Z,99681.78
2023-04-17T17:38:44.718Z,99683.72
2023-04-17T17:41:11.321Z,99680.69
2023-04-17T17:43:38.049Z,99685.34
2023-04-17T17:46:04.816Z,99677.00
2023-04-17T17:48:31.428Z,99686.00
2023-04-17T17:50:58.136Z,99689.59
2023-04-17T17:53:26.895Z,99683.50
2023-04-17T17:55:54.996Z,99685.63
2023-04-17T17:58:21.930Z,99682.66
2023-04-17T18:00:51.448Z,99685.44
2023-04-17T18:03:19.063Z,99687.88
2023-04-17T18:05:46.681Z,99684.16
2023-04-17T18:08:13.861Z,99680.78
2023-04-17T18:10:40.477Z,99683.66
2023-04-17T18:13:07.146Z,99683.56
2023-04-17T18:15:33.779Z,99685.03
2023-04-17T18:18:00.905Z,99682.53
2023-04-17T18:20:27.562Z,99681.97
2023-04-17T18:22:54.272Z,99687.81
2023-04-17T18:25:20.988Z,99684.63
2023-04-17T18:27:47.621Z,99685.69
2023-04-17T18:30:15.035Z,99689.91
2023-04-17T18:32:41.685Z,99692.03
2023-04-17T18:35:08.761Z,99700.28
2023-04-17T18:37:35.839Z,99698.66
2023-04-17T18:40:02.515Z,99703.16
2023-04-17T18:42:29.169Z,99696.03
2023-04-17T18:44:55.775Z,99696.75
2023-04-17T18:47:22.420Z,99700.47
2023-04-17T18:49:52.250Z,99698.53
2023-04-17T18:52:19.218Z,99712.25
2023-04-17T18:54:45.953Z,99711.06
2023-04-17T18:57:12.595Z,99709.56
2023-04-17T18:59:40.446Z,99711.34
2023-04-17T19:02:08.023Z,99719.00
2023-04-17T19:04:34.703Z,99719.69
2023-04-17T19:07:02.764Z,99723.44
2023-04-17T19:09:29.417Z,99723.44
2023-04-17T19:11:57.419Z,99726.09
2023-04-17T19:14:24.786Z,99718.91
2023-04-17T19:16:52.061Z,99724.41
2023-04-17T19:19:18.797Z,99721.47
2023-04-17T19:21:45.471Z,99726.84
2023-04-17T19:24:12.158Z,99720.81
2023-04-17T19:26:38.844Z,99715.72
2023-04-17T19:29:05.601Z,99719.50
2023-04-17T19:31:33.143Z,99723.56
2023-04-17T19:34:00.424Z,99728.19
2023-04-17T19:36:28.155Z,99725.94
2023-04-17T19:38:55.880Z,99725.94
2023-04-17T19:41:22.595Z,99735.94
2023-04-17T19:43:51.313Z,99738.84
2023-04-17T19:46:19.191Z,99733.31
2023-04-17T19:48:47.438Z,99734.81
2023-04-17T19:51:15.421Z,99733.31
2023-04-17T19:53:43.853Z,99736.97
2023-04-17T19:56:10.946Z,99724.16
2023-04-17T19:58:38.615Z,99734.06
2023-04-17T20:01:05.702Z,99732.94
2023-04-17T20:03:32.951Z,99734.88
2023-04-17T20:06:00.236Z,99738.22
2023-04-17T20:08:27.002Z,99738.59
2023-04-17T20:10:53.859Z,99736.50
2023-04-17T20:13:21.432Z,99739.88
2023-04-17T20:15:48.193Z,99732.81
2023-04-17T20:18:14.932Z,99729.44
2023-04-17T20:20:41.514Z,99737.84
2023-04-17T20:23:08.193Z,99735.28
2023-04-17T20:25:34.784Z,99731.78
2023-04-17T20:28:02.994Z,99741.97
2023-04-17T20:30:29.737Z,99743.50
2023-04-17T20:32:56.911Z,99747.25
2023-04-17T20:35:26.644Z,99747.53
2023-04-17T20:37:53.242Z,99748.19
2023-04-17T20:40:20.027Z,99745.47
2023-04-17T20:42:47.469Z,99744.06
2023-04-17T20:45:14.862Z,99751.31
2023-04-17T20:50:15.363Z,99748.56
2023-04-17T20:52:41.962Z,99748.94
2023-04-17T20:55:09.011Z,99743.19
2023-04-17T20:57:35.718Z,99743.56
2023-04-17T21:00:02.522Z,99741.22
2023-04-17T21:02:31.230Z,99744.31
2023-04-17T21:04:59.195Z,99736.22
2023-04-17T21:07:25.782Z,99746.09
2023-04-17T21:09:52.408Z,99735.72
2023-04-17T21:12:18.988Z,99748.16
2023-04-17T21:14:45.601Z,99749.28
2023-04-17T21:17:12.209Z,99745.16
2023-04-17T21:19:39.087Z,99750.22
2023-04-17T21:22:05.693Z,99746.06
2023-04-17T21:24:32.756Z,99752.09
2023-04-17T21:26:59.683Z,99746.56
2023-04-17T21:29:27.882Z,99759.00
2023-04-17T21:31:55.852Z,99757.00
2023-04-17T21:34:23.731Z,99758.91
2023-04-17T21:36:52.451Z,99755.34
2023-04-17T21:39:19.142Z,99756.00
2023-04-17T21:41:45.789Z,99750.34
2023-04-17T21:44:12.608Z,99760.38
2023-04-17T21:46:39.389Z,99764.78
2023-04-17T21:49:06.018Z,99768.38
2023-04-17T21:51:32.700Z,99770.44
2023-04-17T21:53:59.467Z,99765.44
2023-04-17T21:56:26.113Z,99772.13
2023-04-17T21:58:52.755Z,99773.69
2023-04-17T22:01:19.459Z,99773.75
2023-04-17T22:03:46.246Z,99774.41
2023-04-17T22:06:12.858Z,99774.31
2023-04-17T22:08:39.613Z,99776.56
2023-04-17T22:11:06.295Z,99773.06
2023-04-17T22:13:32.988Z,99775.63
2023-04-17T22:15:59.750Z,99774.13
2023-04-17T22:18:27.506Z,99768.53
2023-04-17T22:20:54.370Z,99773.66
2023-04-17T22:23:21.324Z,99776.56
2023-04-17T22:25:47.926Z,99773.66
2023-04-17T22:28:14.561Z,99777.38
2023-04-17T22:30:41.219Z,99778.94
2023-04-17T22:33:08.041Z,99783.44
2023-04-17T22:35:34.781Z,99784.38
2023-04-17T22:38:01.354Z,99780.16
2023-04-17T22:40:29.923Z,99782.94
2023-04-17T22:42:56.501Z,99787.94
2023-04-17T22:45:23.120Z,99788.31
2023-04-17T22:47:49.855Z,99783.19
2023-04-17T22:50:17.764Z,99792.25
2023-04-17T22:52:44.410Z,99795.03
2023-04-17T22:55:11.338Z,99786.63
2023-04-17T22:57:38.029Z,99789.53
2023-04-17T23:00:06.327Z,99790.81
2023-04-17T23:02:32.993Z,99798.00
2023-04-17T23:04:59.736Z,99797.22
2023-04-17T23:07:26.377Z,99797.66
2023-04-17T23:09:53.005Z,99798.69
2023-04-17T23:12:20.950Z,99798.78
2023-04-17T23:14:48.451Z,99799.97
2023-04-17T23:17:15.352Z,99798.44
2023-04-17T23:19:42.239Z,99799.22
2023-04-17T23:22:09.787Z,99786.28
2023-04-17T23:24:36.515Z,99791.72
2023-04-17T23:27:03.123Z,99792.22
2023-04-17T23:29:29.725Z,99790.88
2023-04-17T23:31:56.321Z,99784.00
2023-04-17T23:34:22.939Z,99782.03
2023-04-17T23:36:49.577Z,99795.13
2023-04-17T23:39:16.223Z,99786.63
2023-04-17T23:41:42.830Z,99788.75
2023-04-17T23:44:09.888Z,99785.78
2023-04-17T23:46:36.899Z,99782.56
2023-04-17T23:49:03.861Z,99780.16
2023-04-17T23:51:31.538Z,99780.16
2023-04-17T23:54:00.393Z,99784.78
2023-04-17T23:56:30.087Z,99783.25
2023-04-17T23:58:57.623Z,99788.69
